sensor_id;sensor_type;location;lat;lon;timestamp;P1;durP1;ratioP1;P2;durP2;ratioP2
7753;SDS011;3921;42.266;23.122;2023-02-01T00:00:40;5.93;;;4.20;;
7753;SDS011;3921;42.266;23.122;2023-02-01T00:03:07;7.30;;;4.37;;
7753;SDS011;3921;42.266;23.122;2023-02-01T00:05:34;4.87;;;3.90;;
7753;SDS011;3921;42.266;23.122;2023-02-01T00:08:04;5.00;;;3.60;;
7753;SDS011;3921;42.266;23.122;2023-02-01T00:10:31;5.73;;;3.57;;
7753;SDS011;3921;42.266;23.122;2023-02-01T00:12:59;7.80;;;5.03;;
7753;SDS011;3921;42.266;23.122;2023-02-01T00:15:28;9.60;;;6.10;;
7753;SDS011;3921;42.266;23.122;2023-02-01T00:17:55;10.43;;;5.87;;
7753;SDS011;3921;42.266;23.122;2023-02-01T00:20:22;9.83;;;6.00;;
7753;SDS011;3921;42.266;23.122;2023-02-01T00:22:49;8.57;;;6.43;;
7753;SDS011;3921;42.266;23.122;2023-02-01T00:25:15;8.70;;;6.30;;
7753;SDS011;3921;42.266;23.122;2023-02-01T00:27:42;11.43;;;6.90;;
7753;SDS011;3921;42.266;23.122;2023-02-01T00:30:12;12.87;;;7.77;;
7753;SDS011;3921;42.266;23.122;2023-02-01T00:32:39;11.07;;;7.10;;
7753;SDS011;3921;42.266;23.122;2023-02-01T00:35:06;13.67;;;8.60;;
7753;SDS011;3921;42.266;23.122;2023-02-01T00:37:34;13.23;;;8.63;;
7753;SDS011;3921;42.266;23.122;2023-02-01T00:40:01;15.30;;;8.13;;
7753;SDS011;3921;42.266;23.122;2023-02-01T00:42:28;14.27;;;8.13;;
7753;SDS011;3921;42.266;23.122;2023-02-01T00:44:56;14.10;;;8.03;;
7753;SDS011;3921;42.266;23.122;2023-02-01T00:47:24;14.33;;;7.87;;
7753;SDS011;3921;42.266;23.122;2023-02-01T00:49:51;13.27;;;7.87;;
7753;SDS011;3921;42.266;23.122;2023-02-01T00:52:18;12.47;;;7.10;;
7753;SDS011;3921;42.266;23.122;2023-02-01T00:54:45;12.63;;;7.40;;
7753;SDS011;3921;42.266;23.122;2023-02-01T00:57:12;12.67;;;8.10;;
7753;SDS011;3921;42.266;23.122;2023-02-01T00:59:39;13.73;;;8.63;;
7753;SDS011;3921;42.266;23.122;2023-02-01T01:02:06;12.73;;;8.70;;
7753;SDS011;3921;42.266;23.122;2023-02-01T01:04:34;19.27;;;9.30;;
7753;SDS011;3921;42.266;23.122;2023-02-01T01:07:01;12.97;;;8.00;;
7753;SDS011;3921;42.266;23.122;2023-02-01T01:09:28;13.27;;;8.17;;
7753;SDS011;3921;42.266;23.122;2023-02-01T01:11:54;11.33;;;8.13;;
7753;SDS011;3921;42.266;23.122;2023-02-01T01:14:21;11.10;;;7.63;;
7753;SDS011;3921;42.266;23.122;2023-02-01T01:16:48;12.83;;;7.20;;
7753;SDS011;3921;42.266;23.122;2023-02-01T01:19:16;9.93;;;6.70;;
7753;SDS011;3921;42.266;23.122;2023-02-01T01:21:51;11.80;;;6.93;;
7753;SDS011;3921;42.266;23.122;2023-02-01T01:24:18;12.10;;;7.27;;
7753;SDS011;3921;42.266;23.122;2023-02-01T01:26:45;11.90;;;7.93;;
7753;SDS011;3921;42.266;23.122;2023-02-01T01:29:25;12.23;;;7.70;;
7753;SDS011;3921;42.266;23.122;2023-02-01T01:31:52;9.50;;;7.07;;
7753;SDS011;3921;42.266;23.122;2023-02-01T01:34:19;7.80;;;5.77;;
7753;SDS011;3921;42.266;23.122;2023-02-01T01:36:45;8.60;;;6.13;;
7753;SDS011;3921;42.266;23.122;2023-02-01T01:39:14;9.93;;;6.30;;
7753;SDS011;3921;42.266;23.122;2023-02-01T01:41:41;11.50;;;7.47;;
7753;SDS011;3921;42.266;23.122;2023-02-01T01:47:11;15.37;;;8.13;;
7753;SDS011;3921;42.266;23.122;2023-02-01T01:49:49;11.20;;;7.47;;
7753;SDS011;3921;42.266;23.122;2023-02-01T01:52:17;12.27;;;7.97;;
7753;SDS011;3921;42.266;23.122;2023-02-01T01:55:13;13.80;;;8.17;;
7753;SDS011;3921;42.266;23.122;2023-02-01T01:57:49;12.87;;;7.77;;
7753;SDS011;3921;42.266;23.122;2023-02-01T02:00:33;13.40;;;8.53;;
7753;SDS011;3921;42.266;23.122;2023-02-01T02:03:03;12.97;;;8.07;;
7753;SDS011;3921;42.266;23.122;2023-02-01T02:05:35;12.73;;;7.93;;
7753;SDS011;3921;42.266;23.122;2023-02-01T02:08:02;9.80;;;7.40;;
7753;SDS011;3921;42.266;23.122;2023-02-01T02:10:30;10.17;;;7.13;;
7753;SDS011;3921;42.266;23.122;2023-02-01T02:13:11;11.97;;;7.57;;
7753;SDS011;3921;42.266;23.122;2023-02-01T02:15:41;12.50;;;7.57;;
7753;SDS011;3921;42.266;23.122;2023-02-01T02:18:17;9.83;;;7.17;;
7753;SDS011;3921;42.266;23.122;2023-02-01T02:20:52;10.77;;;6.80;;
7753;SDS011;3921;42.266;23.122;2023-02-01T02:27:04;10.30;;;6.27;;
7753;SDS011;3921;42.266;23.122;2023-02-01T02:33:13;10.73;;;6.57;;
7753;SDS011;3921;42.266;23.122;2023-02-01T02:36:07;11.53;;;6.57;;
7753;SDS011;3921;42.266;23.122;2023-02-01T02:38:53;10.13;;;6.60;;
7753;SDS011;3921;42.266;23.122;2023-02-01T02:41:31;12.73;;;7.07;;
7753;SDS011;3921;42.266;23.122;2023-02-01T02:44:24;12.83;;;6.90;;
7753;SDS011;3921;42.266;23.122;2023-02-01T02:47:22;8.33;;;6.13;;
7753;SDS011;3921;42.266;23.122;2023-02-01T02:50:01;7.00;;;5.70;;
7753;SDS011;3921;42.266;23.122;2023-02-01T02:52:54;7.00;;;5.00;;
7753;SDS011;3921;42.266;23.122;2023-02-01T02:55:49;6.97;;;5.10;;
7753;SDS011;3921;42.266;23.122;2023-02-01T02:58:48;7.90;;;5.50;;
7753;SDS011;3921;42.266;23.122;2023-02-01T03:01:33;9.70;;;6.20;;
7753;SDS011;3921;42.266;23.122;2023-02-01T03:04:17;11.83;;;6.60;;
7753;SDS011;3921;42.266;23.122;2023-02-01T03:06:46;7.60;;;5.80;;
7753;SDS011;3921;42.266;23.122;2023-02-01T03:09:22;9.50;;;5.70;;
7753;SDS011;3921;42.266;23.122;2023-02-01T03:12:00;9.10;;;5.47;;
7753;SDS011;3921;42.266;23.122;2023-02-01T03:14:55;6.53;;;5.00;;
7753;SDS011;3921;42.266;23.122;2023-02-01T03:17:27;7.13;;;5.60;;
7753;SDS011;3921;42.266;23.122;2023-02-01T03:20:01;6.70;;;4.80;;
7753;SDS011;3921;42.266;23.122;2023-02-01T03:22:31;6.57;;;5.00;;
7753;SDS011;3921;42.266;23.122;2023-02-01T03:25:01;7.27;;;5.00;;
7753;SDS011;3921;42.266;23.122;2023-02-01T03:27:35;6.23;;;4.50;;
7753;SDS011;3921;42.266;23.122;2023-02-01T03:30:11;6.27;;;5.03;;
7753;SDS011;3921;42.266;23.122;2023-02-01T03:32:44;7.73;;;5.50;;
7753;SDS011;3921;42.266;23.122;2023-02-01T03:35:26;8.80;;;5.70;;
7753;SDS011;3921;42.266;23.122;2023-02-01T03:38:08;8.17;;;5.67;;
7753;SDS011;3921;42.266;23.122;2023-02-01T03:40:52;5.80;;;5.07;;
7753;SDS011;3921;42.266;23.122;2023-02-01T03:43:25;5.33;;;4.57;;
7753;SDS011;3921;42.266;23.122;2023-02-01T03:46:01;6.43;;;5.10;;
7753;SDS011;3921;42.266;23.122;2023-02-01T03:48:33;5.23;;;3.83;;
7753;SDS011;3921;42.266;23.122;2023-02-01T03:51:02;5.30;;;4.27;;
7753;SDS011;3921;42.266;23.122;2023-02-01T03:53:34;6.53;;;4.73;;
7753;SDS011;3921;42.266;23.122;2023-02-01T03:56:03;5.20;;;4.00;;
7753;SDS011;3921;42.266;23.122;2023-02-01T03:58:32;7.53;;;5.10;;
7753;SDS011;3921;42.266;23.122;2023-02-01T04:00:59;7.07;;;5.23;;
7753;SDS011;3921;42.266;23.122;2023-02-01T04:03:27;7.73;;;5.70;;
7753;SDS011;3921;42.266;23.122;2023-02-01T04:05:55;8.80;;;5.47;;
7753;SDS011;3921;42.266;23.122;2023-02-01T04:08:22;6.07;;;5.20;;
7753;SDS011;3921;42.266;23.122;2023-02-01T04:10:51;6.73;;;5.47;;
7753;SDS011;3921;42.266;23.122;2023-02-01T04:13:25;7.90;;;5.57;;
7753;SDS011;3921;42.266;23.122;2023-02-01T04:16:01;13.17;;;6.53;;
7753;SDS011;3921;42.266;23.122;2023-02-01T04:29:32;11.63;;;6.77;;
7753;SDS011;3921;42.266;23.122;2023-02-01T04:32:04;9.57;;;7.30;;
7753;SDS011;3921;42.266;23.122;2023-02-01T04:34:32;9.40;;;6.43;;
7753;SDS011;3921;42.266;23.122;2023-02-01T04:37:04;9.87;;;6.80;;
7753;SDS011;3921;42.266;23.122;2023-02-01T04:39:31;10.07;;;6.73;;
7753;SDS011;3921;42.266;23.122;2023-02-01T04:42:04;9.17;;;6.47;;
7753;SDS011;3921;42.266;23.122;2023-02-01T04:44:37;7.33;;;4.93;;
7753;SDS011;3921;42.266;23.122;2023-02-01T04:47:07;8.33;;;5.50;;
7753;SDS011;3921;42.266;23.122;2023-02-01T04:49:34;8.47;;;5.07;;
7753;SDS011;3921;42.266;23.122;2023-02-01T04:52:11;7.07;;;5.53;;
7753;SDS011;3921;42.266;23.122;2023-02-01T04:54:38;6.37;;;4.57;;
7753;SDS011;3921;42.266;23.122;2023-02-01T04:57:05;6.40;;;4.53;;
7753;SDS011;3921;42.266;23.122;2023-02-01T04:59:32;4.93;;;3.60;;
7753;SDS011;3921;42.266;23.122;2023-02-01T05:02:04;7.33;;;4.70;;
7753;SDS011;3921;42.266;23.122;2023-02-01T05:04:42;7.77;;;4.23;;
7753;SDS011;3921;42.266;23.122;2023-02-01T05:07:09;11.07;;;4.83;;
7753;SDS011;3921;42.266;23.122;2023-02-01T05:09:36;6.00;;;3.50;;
7753;SDS011;3921;42.266;23.122;2023-02-01T05:12:04;4.67;;;3.23;;
7753;SDS011;3921;42.266;23.122;2023-02-01T05:14:48;7.57;;;4.97;;
7753;SDS011;3921;42.266;23.122;2023-02-01T05:17:17;8.03;;;5.27;;
7753;SDS011;3921;42.266;23.122;2023-02-01T05:19:48;8.90;;;6.07;;
7753;SDS011;3921;42.266;23.122;2023-02-01T05:22:16;10.10;;;5.97;;
7753;SDS011;3921;42.266;23.122;2023-02-01T05:24:44;8.67;;;6.93;;
7753;SDS011;3921;42.266;23.122;2023-02-01T05:27:11;12.30;;;7.40;;
7753;SDS011;3921;42.266;23.122;2023-02-01T05:29:38;9.33;;;6.73;;
7753;SDS011;3921;42.266;23.122;2023-02-01T05:32:05;8.70;;;4.57;;
7753;SDS011;3921;42.266;23.122;2023-02-01T05:34:33;8.67;;;6.37;;
7753;SDS011;3921;42.266;23.122;2023-02-01T05:37:00;10.27;;;6.87;;
7753;SDS011;3921;42.266;23.122;2023-02-01T05:39:27;9.50;;;6.40;;
7753;SDS011;3921;42.266;23.122;2023-02-01T05:41:54;10.73;;;6.90;;
7753;SDS011;3921;42.266;23.122;2023-02-01T05:44:21;9.10;;;7.17;;
7753;SDS011;3921;42.266;23.122;2023-02-01T05:46:48;8.73;;;5.40;;
7753;SDS011;3921;42.266;23.122;2023-02-01T05:49:17;7.27;;;5.07;;
7753;SDS011;3921;42.266;23.122;2023-02-01T05:51:45;10.63;;;6.73;;
7753;SDS011;3921;42.266;23.122;2023-02-01T05:54:12;10.30;;;7.00;;
7753;SDS011;3921;42.266;23.122;2023-02-01T05:56:39;9.87;;;4.97;;
7753;SDS011;3921;42.266;23.122;2023-02-01T05:59:07;7.50;;;4.23;;
7753;SDS011;3921;42.266;23.122;2023-02-01T06:01:36;6.33;;;4.87;;
7753;SDS011;3921;42.266;23.122;2023-02-01T06:04:03;5.97;;;4.43;;
7753;SDS011;3921;42.266;23.122;2023-02-01T06:06:30;6.57;;;3.07;;
7753;SDS011;3921;42.266;23.122;2023-02-01T06:08:59;4.60;;;3.17;;
7753;SDS011;3921;42.266;23.122;2023-02-01T06:11:26;8.23;;;4.27;;
7753;SDS011;3921;42.266;23.122;2023-02-01T06:13:53;7.13;;;4.67;;
7753;SDS011;3921;42.266;23.122;2023-02-01T06:16:20;10.90;;;7.37;;
7753;SDS011;3921;42.266;23.122;2023-02-01T06:18:47;19.73;;;7.57;;
7753;SDS011;3921;42.266;23.122;2023-02-01T06:21:15;9.93;;;6.93;;
7753;SDS011;3921;42.266;23.122;2023-02-01T06:23:48;12.00;;;7.93;;
7753;SDS011;3921;42.266;23.122;2023-02-01T06:26:17;29.67;;;14.60;;
7753;SDS011;3921;42.266;23.122;2023-02-01T06:28:44;16.33;;;9.50;;
7753;SDS011;3921;42.266;23.122;2023-02-01T06:31:11;19.70;;;11.50;;
7753;SDS011;3921;42.266;23.122;2023-02-01T06:33:38;22.83;;;13.30;;
7753;SDS011;3921;42.266;23.122;2023-02-01T06:36:06;21.10;;;12.27;;
7753;SDS011;3921;42.266;23.122;2023-02-01T06:38:36;26.03;;;14.97;;
7753;SDS011;3921;42.266;23.122;2023-02-01T06:41:04;37.10;;;21.87;;
7753;SDS011;3921;42.266;23.122;2023-02-01T06:43:32;42.03;;;21.57;;
7753;SDS011;3921;42.266;23.122;2023-02-01T06:46:00;39.83;;;19.33;;
7753;SDS011;3921;42.266;23.122;2023-02-01T06:48:27;27.97;;;15.03;;
7753;SDS011;3921;42.266;23.122;2023-02-01T06:50:54;22.23;;;13.60;;
7753;SDS011;3921;42.266;23.122;2023-02-01T06:53:21;21.50;;;11.60;;
7753;SDS011;3921;42.266;23.122;2023-02-01T06:55:52;22.77;;;12.57;;
7753;SDS011;3921;42.266;23.122;2023-02-01T06:58:19;24.33;;;14.03;;
7753;SDS011;3921;42.266;23.122;2023-02-01T07:00:48;22.33;;;13.93;;
7753;SDS011;3921;42.266;23.122;2023-02-01T07:03:15;22.77;;;14.00;;
7753;SDS011;3921;42.266;23.122;2023-02-01T07:05:42;19.53;;;12.43;;
7753;SDS011;3921;42.266;23.122;2023-02-01T07:08:09;17.63;;;10.60;;
7753;SDS011;3921;42.266;23.122;2023-02-01T07:10:36;16.13;;;10.00;;
7753;SDS011;3921;42.266;23.122;2023-02-01T07:13:03;15.80;;;9.50;;
7753;SDS011;3921;42.266;23.122;2023-02-01T07:15:31;13.17;;;8.33;;
7753;SDS011;3921;42.266;23.122;2023-02-01T07:17:59;15.17;;;9.23;;
7753;SDS011;3921;42.266;23.122;2023-02-01T07:20:26;13.43;;;9.40;;
7753;SDS011;3921;42.266;23.122;2023-02-01T07:22:56;13.17;;;9.93;;
7753;SDS011;3921;42.266;23.122;2023-02-01T07:25:23;20.97;;;10.17;;
7753;SDS011;3921;42.266;23.122;2023-02-01T07:27:51;17.20;;;10.83;;
7753;SDS011;3921;42.266;23.122;2023-02-01T07:30:18;16.47;;;9.20;;
7753;SDS011;3921;42.266;23.122;2023-02-01T07:32:45;13.00;;;8.83;;
7753;SDS011;3921;42.266;23.122;2023-02-01T07:35:13;15.90;;;8.40;;
7753;SDS011;3921;42.266;23.122;2023-02-01T07:37:40;14.93;;;8.40;;
7753;SDS011;3921;42.266;23.122;2023-02-01T07:40:08;16.87;;;9.47;;
7753;SDS011;3921;42.266;23.122;2023-02-01T07:42:35;17.03;;;10.57;;
7753;SDS011;3921;42.266;23.122;2023-02-01T07:45:03;19.43;;;10.63;;
7753;SDS011;3921;42.266;23.122;2023-02-01T07:47:30;16.27;;;10.00;;
7753;SDS011;3921;42.266;23.122;2023-02-01T07:49:58;16.30;;;11.40;;
7753;SDS011;3921;42.266;23.122;2023-02-01T07:52:28;19.27;;;10.43;;
7753;SDS011;3921;42.266;23.122;2023-02-01T07:54:56;14.57;;;8.80;;
7753;SDS011;3921;42.266;23.122;2023-02-01T07:57:23;16.93;;;9.63;;
7753;SDS011;3921;42.266;23.122;2023-02-01T07:59:52;13.70;;;8.63;;
7753;SDS011;3921;42.266;23.122;2023-02-01T08:02:37;18.63;;;12.23;;
7753;SDS011;3921;42.266;23.122;2023-02-01T08:05:09;45.60;;;27.47;;
7753;SDS011;3921;42.266;23.122;2023-02-01T08:07:39;18.40;;;11.60;;
7753;SDS011;3921;42.266;23.122;2023-02-01T08:10:06;17.00;;;9.17;;
7753;SDS011;3921;42.266;23.122;2023-02-01T08:12:35;13.53;;;9.10;;
7753;SDS011;3921;42.266;23.122;2023-02-01T08:15:04;17.47;;;9.50;;
7753;SDS011;3921;42.266;23.122;2023-02-01T08:17:33;13.87;;;8.77;;
7753;SDS011;3921;42.266;23.122;2023-02-01T08:20:04;17.47;;;9.63;;
7753;SDS011;3921;42.266;23.122;2023-02-01T08:22:33;13.90;;;9.27;;
7753;SDS011;3921;42.266;23.122;2023-02-01T08:25:02;16.33;;;11.17;;
7753;SDS011;3921;42.266;23.122;2023-02-01T08:27:33;17.73;;;11.10;;
7753;SDS011;3921;42.266;23.122;2023-02-01T08:30:13;18.37;;;9.27;;
7753;SDS011;3921;42.266;23.122;2023-02-01T08:32:40;16.60;;;9.17;;
7753;SDS011;3921;42.266;23.122;2023-02-01T08:35:12;28.83;;;15.83;;
7753;SDS011;3921;42.266;23.122;2023-02-01T08:37:40;37.13;;;20.57;;
7753;SDS011;3921;42.266;23.122;2023-02-01T08:40:10;40.17;;;24.00;;
7753;SDS011;3921;42.266;23.122;2023-02-01T08:42:39;34.50;;;20.97;;
7753;SDS011;3921;42.266;23.122;2023-02-01T08:45:19;29.77;;;17.17;;
7753;SDS011;3921;42.266;23.122;2023-02-01T08:47:55;27.97;;;16.63;;
7753;SDS011;3921;42.266;23.122;2023-02-01T08:50:24;29.23;;;16.60;;
7753;SDS011;3921;42.266;23.122;2023-02-01T08:52:55;30.47;;;15.00;;
7753;SDS011;3921;42.266;23.122;2023-02-01T08:55:25;26.63;;;14.17;;
7753;SDS011;3921;42.266;23.122;2023-02-01T08:57:55;31.40;;;15.13;;
7753;SDS011;3921;42.266;23.122;2023-02-01T09:00:22;23.60;;;14.27;;
7753;SDS011;3921;42.266;23.122;2023-02-01T09:02:51;25.83;;;13.63;;
7753;SDS011;3921;42.266;23.122;2023-02-01T09:05:18;16.00;;;11.30;;
7753;SDS011;3921;42.266;23.122;2023-02-01T09:07:54;28.97;;;15.20;;
7753;SDS011;3921;42.266;23.122;2023-02-01T09:10:20;46.90;;;21.77;;
7753;SDS011;3921;42.266;23.122;2023-02-01T09:12:49;36.10;;;19.93;;
7753;SDS011;3921;42.266;23.122;2023-02-01T09:15:17;37.73;;;19.97;;
7753;SDS011;3921;42.266;23.122;2023-02-01T09:17:47;35.83;;;20.77;;
7753;SDS011;3921;42.266;23.122;2023-02-01T09:20:20;30.50;;;18.30;;
7753;SDS011;3921;42.266;23.122;2023-02-01T09:22:49;34.00;;;18.50;;
7753;SDS011;3921;42.266;23.122;2023-02-01T09:25:21;35.97;;;21.63;;
7753;SDS011;3921;42.266;23.122;2023-02-01T09:27:52;50.87;;;31.30;;
7753;SDS011;3921;42.266;23.122;2023-02-01T09:30:22;42.50;;;24.00;;
7753;SDS011;3921;42.266;23.122;2023-02-01T09:32:49;33.80;;;20.87;;
7753;SDS011;3921;42.266;23.122;2023-02-01T09:35:16;33.03;;;20.33;;
7753;SDS011;3921;42.266;23.122;2023-02-01T09:37:46;35.23;;;20.63;;
7753;SDS011;3921;42.266;23.122;2023-02-01T09:40:13;32.23;;;18.10;;
7753;SDS011;3921;42.266;23.122;2023-02-01T09:42:53;29.57;;;19.23;;
7753;SDS011;3921;42.266;23.122;2023-02-01T09:45:40;34.40;;;21.80;;
7753;SDS011;3921;42.266;23.122;2023-02-01T09:48:15;38.50;;;19.67;;
7753;SDS011;3921;42.266;23.122;2023-02-01T09:50:49;32.13;;;18.47;;
7753;SDS011;3921;42.266;23.122;2023-02-01T09:53:23;36.90;;;19.73;;
7753;SDS011;3921;42.266;23.122;2023-02-01T09:55:55;38.10;;;20.43;;
7753;SDS011;3921;42.266;23.122;2023-02-01T09:58:32;35.10;;;18.03;;
7753;SDS011;3921;42.266;23.122;2023-02-01T10:01:10;35.37;;;17.80;;
7753;SDS011;3921;42.266;23.122;2023-02-01T10:03:41;26.67;;;14.73;;
7753;SDS011;3921;42.266;23.122;2023-02-01T10:06:13;28.33;;;15.77;;
7753;SDS011;3921;42.266;23.122;2023-02-01T10:09:09;33.03;;;17.73;;
7753;SDS011;3921;42.266;23.122;2023-02-01T10:11:52;32.60;;;16.80;;
7753;SDS011;3921;42.266;23.122;2023-02-01T10:14:37;24.20;;;14.07;;
7753;SDS011;3921;42.266;23.122;2023-02-01T10:17:18;21.87;;;11.83;;
7753;SDS011;3921;42.266;23.122;2023-02-01T10:19:55;16.20;;;10.90;;
7753;SDS011;3921;42.266;23.122;2023-02-01T10:22:37;22.67;;;13.37;;
7753;SDS011;3921;42.266;23.122;2023-02-01T10:25:08;24.13;;;13.27;;
7753;SDS011;3921;42.266;23.122;2023-02-01T10:27:48;22.97;;;12.10;;
7753;SDS011;3921;42.266;23.122;2023-02-01T10:30:21;19.37;;;11.97;;
7753;SDS011;3921;42.266;23.122;2023-02-01T10:32:52;22.27;;;11.33;;
7753;SDS011;3921;42.266;23.122;2023-02-01T10:35:24;21.93;;;12.13;;
7753;SDS011;3921;42.266;23.122;2023-02-01T10:37:57;30.33;;;17.77;;
7753;SDS011;3921;42.266;23.122;2023-02-01T10:40:27;32.47;;;17.23;;
7753;SDS011;3921;42.266;23.122;2023-02-01T10:42:58;27.57;;;14.23;;
7753;SDS011;3921;42.266;23.122;2023-02-01T10:45:29;23.43;;;13.77;;
7753;SDS011;3921;42.266;23.122;2023-02-01T10:47:59;24.70;;;13.57;;
7753;SDS011;3921;42.266;23.122;2023-02-01T10:50:32;22.83;;;13.37;;
7753;SDS011;3921;42.266;23.122;2023-02-01T10:53:05;23.60;;;14.07;;
7753;SDS011;3921;42.266;23.122;2023-02-01T10:55:45;28.97;;;15.73;;
7753;SDS011;3921;42.266;23.122;2023-02-01T10:58:15;29.20;;;15.37;;
7753;SDS011;3921;42.266;23.122;2023-02-01T11:00:46;24.90;;;14.87;;
7753;SDS011;3921;42.266;23.122;2023-02-01T11:03:22;24.77;;;14.60;;
7753;SDS011;3921;42.266;23.122;2023-02-01T11:06:00;19.70;;;12.80;;
7753;SDS011;3921;42.266;23.122;2023-02-01T11:08:41;19.47;;;11.00;;
7753;SDS011;3921;42.266;23.122;2023-02-01T11:11:16;20.63;;;11.10;;
7753;SDS011;3921;42.266;23.122;2023-02-01T11:13:57;21.97;;;13.40;;
7753;SDS011;3921;42.266;23.122;2023-02-01T11:16:35;24.77;;;14.17;;
7753;SDS011;3921;42.266;23.122;2023-02-01T11:19:04;11.87;;;5.30;;
7753;SDS011;3921;42.266;23.122;2023-02-01T11:21:32;4.73;;;2.70;;
7753;SDS011;3921;42.266;23.122;2023-02-01T11:24:01;2.77;;;1.80;;
7753;SDS011;3921;42.266;23.122;2023-02-01T11:26:30;3.03;;;1.93;;
7753;SDS011;3921;42.266;23.122;2023-02-01T11:28:59;4.60;;;3.53;;
7753;SDS011;3921;42.266;23.122;2023-02-01T11:31:29;11.53;;;6.40;;
7753;SDS011;3921;42.266;23.122;2023-02-01T11:34:00;8.87;;;4.83;;
7753;SDS011;3921;42.266;23.122;2023-02-01T11:36:36;5.33;;;3.83;;
7753;SDS011;3921;42.266;23.122;2023-02-01T11:39:10;6.10;;;3.77;;
7753;SDS011;3921;42.266;23.122;2023-02-01T11:41:59;6.63;;;3.40;;
7753;SDS011;3921;42.266;23.122;2023-02-01T11:44:35;7.17;;;3.03;;
7753;SDS011;3921;42.266;23.122;2023-02-01T11:47:18;4.93;;;2.97;;
7753;SDS011;3921;42.266;23.122;2023-02-01T11:49:48;6.23;;;3.73;;
7753;SDS011;3921;42.266;23.122;2023-02-01T11:52:18;7.50;;;3.20;;
7753;SDS011;3921;42.266;23.122;2023-02-01T11:58:05;4.67;;;3.17;;
7753;SDS011;3921;42.266;23.122;2023-02-01T12:00:45;5.93;;;3.07;;
7753;SDS011;3921;42.266;23.122;2023-02-01T12:06:27;2.87;;;2.00;;
7753;SDS011;3921;42.266;23.122;2023-02-01T12:09:03;3.43;;;2.23;;
7753;SDS011;3921;42.266;23.122;2023-02-01T12:11:43;6.57;;;3.70;;
7753;SDS011;3921;42.266;23.122;2023-02-01T12:14:24;9.07;;;2.57;;
7753;SDS011;3921;42.266;23.122;2023-02-01T12:20:09;2.77;;;1.70;;
7753;SDS011;3921;42.266;23.122;2023-02-01T12:22:55;3.00;;;2.20;;
7753;SDS011;3921;42.266;23.122;2023-02-01T12:25:33;3.20;;;2.47;;
7753;SDS011;3921;42.266;23.122;2023-02-01T12:28:12;5.23;;;2.47;;
7753;SDS011;3921;42.266;23.122;2023-02-01T12:31:00;2.87;;;2.00;;
7753;SDS011;3921;42.266;23.122;2023-02-01T12:33:41;7.40;;;4.57;;
7753;SDS011;3921;42.266;23.122;2023-02-01T12:36:21;2.20;;;1.80;;
7753;SDS011;3921;42.266;23.122;2023-02-01T12:41:39;2.40;;;1.73;;
7753;SDS011;3921;42.266;23.122;2023-02-01T12:44:17;2.73;;;2.30;;
7753;SDS011;3921;42.266;23.122;2023-02-01T12:46:52;4.37;;;1.80;;
7753;SDS011;3921;42.266;23.122;2023-02-01T12:49:23;6.90;;;3.70;;
7753;SDS011;3921;42.266;23.122;2023-02-01T12:51:58;5.10;;;2.90;;
7753;SDS011;3921;42.266;23.122;2023-02-01T12:54:30;2.90;;;2.40;;
7753;SDS011;3921;42.266;23.122;2023-02-01T12:57:04;1.77;;;1.67;;
7753;SDS011;3921;42.266;23.122;2023-02-01T12:59:38;2.03;;;1.60;;
7753;SDS011;3921;42.266;23.122;2023-02-01T13:02:11;2.43;;;2.20;;
7753;SDS011;3921;42.266;23.122;2023-02-01T13:04:49;3.53;;;2.43;;
7753;SDS011;3921;42.266;23.122;2023-02-01T13:07:24;2.90;;;2.40;;
7753;SDS011;3921;42.266;23.122;2023-02-01T13:09:55;3.40;;;2.10;;
7753;SDS011;3921;42.266;23.122;2023-02-01T13:12:28;10.57;;;5.40;;
7753;SDS011;3921;42.266;23.122;2023-02-01T13:15:02;8.50;;;4.43;;
7753;SDS011;3921;42.266;23.122;2023-02-01T13:17:37;6.17;;;3.80;;
7753;SDS011;3921;42.266;23.122;2023-02-01T13:20:06;4.63;;;2.97;;
7753;SDS011;3921;42.266;23.122;2023-02-01T13:22:43;4.73;;;3.20;;
7753;SDS011;3921;42.266;23.122;2023-02-01T13:25:15;2.77;;;2.23;;
7753;SDS011;3921;42.266;23.122;2023-02-01T13:27:50;2.37;;;1.67;;
7753;SDS011;3921;42.266;23.122;2023-02-01T13:30:22;2.53;;;1.37;;
7753;SDS011;3921;42.266;23.122;2023-02-01T13:35:59;6.33;;;3.50;;
7753;SDS011;3921;42.266;23.122;2023-02-01T13:42:13;5.00;;;2.87;;
7753;SDS011;3921;42.266;23.122;2023-02-01T13:44:46;2.67;;;2.13;;
7753;SDS011;3921;42.266;23.122;2023-02-01T13:47:20;8.80;;;4.70;;
7753;SDS011;3921;42.266;23.122;2023-02-01T13:49:52;7.23;;;3.20;;
7753;SDS011;3921;42.266;23.122;2023-02-01T13:52:23;5.67;;;2.90;;
7753;SDS011;3921;42.266;23.122;2023-02-01T13:55:13;4.70;;;2.67;;
7753;SDS011;3921;42.266;23.122;2023-02-01T13:57:52;5.10;;;2.67;;
7753;SDS011;3921;42.266;23.122;2023-02-01T14:00:30;5.33;;;3.37;;
7753;SDS011;3921;42.266;23.122;2023-02-01T14:06:35;3.60;;;2.73;;
7753;SDS011;3921;42.266;23.122;2023-02-01T14:09:16;3.63;;;2.20;;
7753;SDS011;3921;42.266;23.122;2023-02-01T14:11:46;2.77;;;1.90;;
7753;SDS011;3921;42.266;23.122;2023-02-01T14:23:21;2.90;;;1.80;;
7753;SDS011;3921;42.266;23.122;2023-02-01T14:29:13;2.47;;;1.90;;
7753;SDS011;3921;42.266;23.122;2023-02-01T14:31:51;2.07;;;1.73;;
7753;SDS011;3921;42.266;23.122;2023-02-01T14:34:31;2.17;;;1.93;;
7753;SDS011;3921;42.266;23.122;2023-02-01T14:37:08;9.07;;;3.70;;
7753;SDS011;3921;42.266;23.122;2023-02-01T14:39:47;14.20;;;7.23;;
7753;SDS011;3921;42.266;23.122;2023-02-01T14:42:28;38.47;;;18.23;;
7753;SDS011;3921;42.266;23.122;2023-02-01T14:51:15;30.03;;;14.40;;
7753;SDS011;3921;42.266;23.122;2023-02-01T14:53:44;23.40;;;13.83;;
7753;SDS011;3921;42.266;23.122;2023-02-01T14:56:13;23.80;;;13.97;;
7753;SDS011;3921;42.266;23.122;2023-02-01T14:58:47;20.23;;;12.87;;
7753;SDS011;3921;42.266;23.122;2023-02-01T15:01:20;10.47;;;6.43;;
7753;SDS011;3921;42.266;23.122;2023-02-01T15:03:54;10.23;;;6.83;;
7753;SDS011;3921;42.266;23.122;2023-02-01T15:06:30;9.60;;;6.80;;
7753;SDS011;3921;42.266;23.122;2023-02-01T15:09:01;8.33;;;6.07;;
7753;SDS011;3921;42.266;23.122;2023-02-01T15:11:30;7.07;;;5.30;;
7753;SDS011;3921;42.266;23.122;2023-02-01T15:13:57;7.90;;;5.57;;
7753;SDS011;3921;42.266;23.122;2023-02-01T15:16:25;10.00;;;4.87;;
7753;SDS011;3921;42.266;23.122;2023-02-01T15:19:09;12.73;;;5.97;;
7753;SDS011;3921;42.266;23.122;2023-02-01T15:21:48;10.57;;;6.70;;
7753;SDS011;3921;42.266;23.122;2023-02-01T15:24:20;14.73;;;7.47;;
7753;SDS011;3921;42.266;23.122;2023-02-01T15:26:49;16.43;;;8.30;;
7753;SDS011;3921;42.266;23.122;2023-02-01T15:29:16;16.63;;;9.43;;
7753;SDS011;3921;42.266;23.122;2023-02-01T15:31:45;18.43;;;10.30;;
7753;SDS011;3921;42.266;23.122;2023-02-01T15:34:14;21.37;;;13.17;;
7753;SDS011;3921;42.266;23.122;2023-02-01T15:36:41;62.30;;;27.77;;
7753;SDS011;3921;42.266;23.122;2023-02-01T15:39:15;62.67;;;27.67;;
7753;SDS011;3921;42.266;23.122;2023-02-01T15:41:49;58.90;;;27.37;;
7753;SDS011;3921;42.266;23.122;2023-02-01T15:44:28;61.67;;;27.20;;
7753;SDS011;3921;42.266;23.122;2023-02-01T15:47:06;23.40;;;11.83;;
7753;SDS011;3921;42.266;23.122;2023-02-01T15:49:39;16.33;;;8.63;;
7753;SDS011;3921;42.266;23.122;2023-02-01T15:52:14;18.17;;;9.97;;
7753;SDS011;3921;42.266;23.122;2023-02-01T15:54:49;17.13;;;8.40;;
7753;SDS011;3921;42.266;23.122;2023-02-01T15:57:19;9.30;;;5.70;;
7753;SDS011;3921;42.266;23.122;2023-02-01T15:59:55;7.97;;;5.23;;
7753;SDS011;3921;42.266;23.122;2023-02-01T16:02:28;15.23;;;8.57;;
7753;SDS011;3921;42.266;23.122;2023-02-01T16:04:59;28.80;;;16.57;;
7753;SDS011;3921;42.266;23.122;2023-02-01T16:07:29;34.30;;;17.37;;
7753;SDS011;3921;42.266;23.122;2023-02-01T16:09:59;24.50;;;12.60;;
7753;SDS011;3921;42.266;23.122;2023-02-01T16:12:32;40.43;;;20.47;;
7753;SDS011;3921;42.266;23.122;2023-02-01T16:15:11;37.73;;;20.30;;
7753;SDS011;3921;42.266;23.122;2023-02-01T16:17:38;34.57;;;18.33;;
7753;SDS011;3921;42.266;23.122;2023-02-01T16:20:08;50.37;;;25.70;;